Airport View

Enter AWOS ICAO identifier for current METAR.

ex. KFNL

KCQW 270020Z AUTO 00000KT 10SM BKN110 06/02 A2998 RMK AO2

27 Jan 2020 00:21

Frequency: 124.825

Phone: 843-537-3301

Other Area AWOS: KBBP - KRCZ - KUDG - KAFP

TAF KFLO 262320Z 2700/2724 00000KT P6SM SCT250 FM270400 00000KT P6SM BKN100 FM270900 24005KT P6SM BKN060 FM271800 25008KT P6SM SCT035 BKN050